Argent Gerbera — V7UC4 — position and weather

sailwx.info

Track history (hours):
 
Tides and Currents Weather Stations Pressure Air Temp Water Temp Dewpoint Dewpoint Depression Visibility Wind Speed Wind Dir Waves Ship Positions

Argent Gerbera

Last reported at 2016-Apr-22 01:24 UTC. Time now 2016-May-04 06:03 UTC.
Position N 31°19' E 032°22'.
Warning: this ship's position is 12 days out of date.

Length 175 m; draft 10.8 m.

Type: Ship (hazmat cat C). MMSI: 538003929.

Date/timePositionNaut miles runAvg speedWind from/ knotsBaromVisibWave heightAir tempDewpointWater temp
2016-Apr-22 01:24N 31°19' E 032°22'3 3.8
2016-Apr-22 00:33N 31°22' E 032°20'0 0.4
2016-Apr-21 23:33N 31°22' E 032°19'0 0.0
2016-Apr-21 22:33N 31°22' E 032°19'0 0.0
2016-Apr-21 21:33N 31°22' E 032°19'0 0.0
2016-Apr-21 20:33N 31°22' E 032°19'0 0.0
2016-Apr-21 19:33N 31°22' E 032°19'0 0.0
2016-Apr-21 18:33N 31°22' E 032°19'0 0.0
2016-Apr-21 17:33N 31°22' E 032°19'0 0.0
2016-Apr-21 16:33N 31°22' E 032°19'0 0.0
2016-Apr-21 15:33N 31°22' E 032°19'0 0.0
2016-Apr-21 12:17N 31°22' E 032°19'0 0.0
2016-Apr-21 11:33N 31°22' E 032°19'0 0.0
2016-Apr-21 08:20N 31°22' E 032°19'0 0.1
2016-Apr-21 07:33N 31°22' E 032°20'3 2.9
2016-Apr-21 06:31N 31°25' E 032°19'8514.2
2016-Apr-21 00:34N 32°13' E 030°57'1715.1
2016-Apr-20 23:25N 32°21' E 030°39'11814.8
2016-Apr-20 15:27N 32°59' E 028°27'59815.2
2016-Apr-19 00:14N 35°51' E 016°53'1014.9
2016-Apr-18 23:33N 35°54' E 016°41'1514.7
2016-Apr-18 22:34N 35°59' E 016°24'1515.0
2016-Apr-18 21:33N 36°03' E 016°06'2115.1
2016-Apr-18 20:08N 36°09' E 015°40'915.3
2016-Apr-18 19:33N 36°12' E 015°30'1515.3
2016-Apr-18 18:33N 36°17' E 015°12'1515.0
2016-Apr-18 17:33N 36°23' E 014°55'1514.8
2016-Apr-18 16:34N 36°29' E 014°38'1414.3
2016-Apr-18 15:34N 36°34' E 014°22'1414.3
2016-Apr-18 14:34N 36°42' E 014°06'1414.4
2016-Apr-18 13:33N 36°49' E 013°51'1414.2
2016-Apr-18 12:33N 36°56' E 013°35'5114.7
2016-Apr-18 09:07N 37°21' E 012°40'1515.6
2016-Apr-18 08:10N 37°29' E 012°24'1015.7
2016-Apr-18 07:33N 37°35' E 012°16'1615.4
2016-Apr-18 06:33N 37°44' E 011°59'4614.7
2016-Apr-18 03:25N 38°03' E 011°06'3415.7
2016-Apr-18 01:15N 38°07' E 010°23'1315.9
2016-Apr-18 00:24N 38°08' E 010°06'42015.4
2016-Apr-16 21:09N 37°15' E 001°20'915.2
2016-Apr-16 20:33N 37°11' E 001°09'1515.3
2016-Apr-16 19:33N 37°05' E 000°52'1615.3
2016-Apr-16 18:31N 36°59' E 000°34'1515.6
2016-Apr-16 17:33N 36°53' E 000°16'27615.4
2016-Apr-15 23:34N 35°59' W 005°21'62215.0
2016-Apr-14 06:03N 28°13' W 013°27'2915.1
2016-Apr-14 04:09N 27°49' W 013°45'  
Track history (hours):
 
Tides and Currents Weather Stations Pressure Air Temp Water Temp Dewpoint Dewpoint Depression Visibility Wind Speed Wind Dir Waves Ship Positions

Argent Gerbera

Last reported at 2016-Apr-22 01:24 UTC. Time now 2016-May-04 06:03 UTC.
Position N 31°19' E 032°22'.
Warning: this ship's position is 12 days out of date.

Length 175 m; draft 10.8 m.

Type: Ship (hazmat cat C). MMSI: 538003929.

Date/timePositionNaut miles runAvg speedWind from/ knotsBaromVisibWave heightAir tempDewpointWater temp
2016-Apr-22 01:24N 31°19' E 032°22'3 3.8
2016-Apr-22 00:33N 31°22' E 032°20'0 0.4
2016-Apr-21 23:33N 31°22' E 032°19'0 0.0
2016-Apr-21 22:33N 31°22' E 032°19'0 0.0
2016-Apr-21 21:33N 31°22' E 032°19'0 0.0
2016-Apr-21 20:33N 31°22' E 032°19'0 0.0
2016-Apr-21 19:33N 31°22' E 032°19'0 0.0
2016-Apr-21 18:33N 31°22' E 032°19'0 0.0
2016-Apr-21 17:33N 31°22' E 032°19'0 0.0
2016-Apr-21 16:33N 31°22' E 032°19'0 0.0
2016-Apr-21 15:33N 31°22' E 032°19'0 0.0
2016-Apr-21 12:17N 31°22' E 032°19'0 0.0
2016-Apr-21 11:33N 31°22' E 032°19'0 0.0
2016-Apr-21 08:20N 31°22' E 032°19'0 0.1
2016-Apr-21 07:33N 31°22' E 032°20'3 2.9
2016-Apr-21 06:31N 31°25' E 032°19'8514.2
2016-Apr-21 00:34N 32°13' E 030°57'1715.1
2016-Apr-20 23:25N 32°21' E 030°39'11814.8
2016-Apr-20 15:27N 32°59' E 028°27'59815.2
2016-Apr-19 00:14N 35°51' E 016°53'1014.9
2016-Apr-18 23:33N 35°54' E 016°41'1514.7
2016-Apr-18 22:34N 35°59' E 016°24'1515.0
2016-Apr-18 21:33N 36°03' E 016°06'2115.1
2016-Apr-18 20:08N 36°09' E 015°40'915.3
2016-Apr-18 19:33N 36°12' E 015°30'1515.3
2016-Apr-18 18:33N 36°17' E 015°12'1515.0
2016-Apr-18 17:33N 36°23' E 014°55'1514.8
2016-Apr-18 16:34N 36°29' E 014°38'1414.3
2016-Apr-18 15:34N 36°34' E 014°22'1414.3
2016-Apr-18 14:34N 36°42' E 014°06'1414.4
2016-Apr-18 13:33N 36°49' E 013°51'1414.2
2016-Apr-18 12:33N 36°56' E 013°35'5114.7
2016-Apr-18 09:07N 37°21' E 012°40'1515.6
2016-Apr-18 08:10N 37°29' E 012°24'1015.7
2016-Apr-18 07:33N 37°35' E 012°16'1615.4
2016-Apr-18 06:33N 37°44' E 011°59'4614.7
2016-Apr-18 03:25N 38°03' E 011°06'3415.7
2016-Apr-18 01:15N 38°07' E 010°23'1315.9
2016-Apr-18 00:24N 38°08' E 010°06'42015.4
2016-Apr-16 21:09N 37°15' E 001°20'915.2
2016-Apr-16 20:33N 37°11' E 001°09'1515.3
2016-Apr-16 19:33N 37°05' E 000°52'1615.3
2016-Apr-16 18:31N 36°59' E 000°34'1515.6
2016-Apr-16 17:33N 36°53' E 000°16'27615.4
2016-Apr-15 23:34N 35°59' W 005°21'62215.0
2016-Apr-14 06:03N 28°13' W 013°27'2915.1
2016-Apr-14 04:09N 27°49' W 013°45'  

Dump ship's entire track history